createdAt,value
2022-10-15T00:01:22.210Z,98091.28
2022-10-15T00:04:24.031Z,98085.31
2022-10-15T00:07:26.111Z,98082.59
2022-10-15T00:10:28.302Z,98087.25
2022-10-15T00:13:30.061Z,98084.28
2022-10-15T00:16:35.390Z,98084.69
2022-10-15T00:19:37.091Z,98095.34
2022-10-15T00:22:39.289Z,98086.69
2022-10-15T00:25:42.844Z,98087.66
2022-10-15T00:28:44.726Z,98079.63
2022-10-15T00:31:46.703Z,98076.28
2022-10-15T00:34:48.729Z,98067.09
2022-10-15T00:37:50.538Z,98071.44
2022-10-15T00:40:52.973Z,98066.59
2022-10-15T00:44:19.447Z,98073.88
2022-10-15T00:47:29.097Z,98070.72
2022-10-15T00:50:34.141Z,98070.22
2022-10-15T00:53:36.680Z,98065.13
2022-10-15T00:56:40.562Z,98064.31
2022-10-15T00:59:51.192Z,98061.00
2022-10-15T01:02:52.930Z,98051.16
2022-10-15T01:05:55.458Z,98049.16
2022-10-15T01:08:57.351Z,98039.75
2022-10-15T01:11:59.214Z,98042.22
2022-10-15T01:15:10.601Z,98049.44
2022-10-15T01:18:16.033Z,98049.06
2022-10-15T01:21:18.071Z,98043.47
2022-10-15T01:24:37.597Z,98047.03
2022-10-15T01:27:55.533Z,98047.00
2022-10-15T01:31:04.635Z,98043.84
2022-10-15T01:34:16.074Z,98039.63
2022-10-15T01:37:32.604Z,98028.81
2022-10-15T01:41:01.557Z,98024.78
2022-10-15T01:44:09.214Z,98026.66
2022-10-15T01:47:46.980Z,98025.59
2022-10-15T01:50:52.237Z,98029.19
2022-10-15T01:53:55.026Z,98026.19
2022-10-15T01:56:58.549Z,98022.13
2022-10-15T02:00:02.192Z,98015.97
2022-10-15T02:03:14.515Z,98016.31
2022-10-15T02:06:24.353Z,98022.69
2022-10-15T02:09:32.684Z,98018.03
2022-10-15T02:12:42.832Z,98012.88
2022-10-15T02:16:13.312Z,98007.03
2022-10-15T02:19:24.591Z,97993.91
2022-10-15T02:22:45.379Z,97996.22
2022-10-15T02:25:50.707Z,97993.34
2022-10-15T02:28:55.214Z,97990.25
2022-10-15T02:31:58.220Z,97994.69
2022-10-15T02:35:00.890Z,97993.78
2022-10-15T02:38:06.097Z,97997.09
2022-10-15T02:41:09.740Z,98003.31
2022-10-15T02:44:11.546Z,97998.22
2022-10-15T02:47:13.503Z,98005.09
2022-10-15T02:50:15.950Z,97991.19
2022-10-15T02:53:17.750Z,97992.47
2022-10-15T02:56:19.678Z,97995.03
2022-10-15T02:59:22.505Z,97989.47
2022-10-15T03:02:28.167Z,97985.13
2022-10-15T03:05:30.165Z,97979.78
2022-10-15T03:08:32.322Z,97978.22
2022-10-15T03:11:38.822Z,97975.13
2022-10-15T03:14:42.108Z,97970.41
2022-10-15T03:17:44.083Z,97972.53
2022-10-15T03:20:53.701Z,97967.91
2022-10-15T03:23:55.749Z,97970.81
2022-10-15T03:26:59.589Z,97979.69
2022-10-15T03:30:01.616Z,97984.91
2022-10-15T03:33:06.434Z,97981.75
2022-10-15T03:36:09.945Z,97992.50
2022-10-15T03:39:12.892Z,97992.41
2022-10-15T03:42:15.145Z,97992.69
2022-10-15T03:45:20.591Z,97998.81
2022-10-15T03:48:28.150Z,97996.88
2022-10-15T03:51:31.754Z,98006.50
2022-10-15T03:54:41.662Z,97999.28
2022-10-15T03:57:44.668Z,98005.00
2022-10-15T04:00:47.016Z,97993.00
2022-10-15T04:03:53.120Z,97993.06
2022-10-15T04:06:59.655Z,97979.72
2022-10-15T04:10:02.138Z,97977.47
2022-10-15T04:13:12.976Z,97970.72
2022-10-15T04:16:17.932Z,97975.28
2022-10-15T04:19:20.155Z,97971.06
2022-10-15T04:22:32.535Z,97967.19
2022-10-15T04:25:37.621Z,97964.63
2022-10-15T04:28:39.561Z,97966.34
2022-10-15T04:31:42.072Z,97962.13
2022-10-15T04:34:46.470Z,97966.78
2022-10-15T04:37:50.098Z,97965.38
2022-10-15T04:41:08.397Z,97977.81
2022-10-15T04:44:25.455Z,97986.13
2022-10-15T04:47:30.965Z,97988.53
2022-10-15T04:50:48.321Z,97987.94
2022-10-15T04:53:55.605Z,97982.53
2022-10-15T04:56:57.551Z,97976.78
2022-10-15T04:59:59.903Z,97978.34
2022-10-15T05:03:07.959Z,97977.91
2022-10-15T05:06:20.093Z,97977.94
2022-10-15T05:09:22.775Z,97971.13
2022-10-15T05:12:26.424Z,97972.09
2022-10-15T05:15:29.447Z,97973.81
2022-10-15T05:18:32.402Z,97971.38
2022-10-15T05:21:36.411Z,97964.94
2022-10-15T05:24:45.279Z,97973.84
2022-10-15T05:27:59.780Z,97975.53
2022-10-15T05:31:10.979Z,97976.91
2022-10-15T05:34:14.714Z,97972.88
2022-10-15T05:37:26.519Z,97984.19
2022-10-15T05:40:28.831Z,97991.09
2022-10-15T05:43:41.369Z,97990.16
2022-10-15T05:46:51.775Z,97991.84
2022-10-15T05:49:57.926Z,97987.75
2022-10-15T05:53:05.061Z,97985.50
2022-10-15T05:56:17.042Z,97979.53
2022-10-15T05:59:19.215Z,97993.97
2022-10-15T06:02:21.265Z,97996.81
2022-10-15T06:05:23.497Z,97995.03
2022-10-15T06:08:25.610Z,97989.16
2022-10-15T06:11:27.862Z,98001.06
2022-10-15T06:14:30.490Z,98009.78
2022-10-15T06:17:32.420Z,98009.97
2022-10-15T06:20:34.926Z,98016.56
2022-10-15T06:23:37.097Z,98015.94
2022-10-15T06:26:39.090Z,98022.56
2022-10-15T06:29:41.809Z,98028.22
2022-10-15T06:32:51.446Z,98030.06
2022-10-15T06:35:53.674Z,98038.94
2022-10-15T06:38:55.506Z,98043.44
2022-10-15T06:41:57.580Z,98037.22
2022-10-15T06:45:11.076Z,98033.97
2022-10-15T06:48:13.159Z,98036.91
2022-10-15T06:51:15.410Z,98035.00
2022-10-15T06:54:25.546Z,98042.78
2022-10-15T06:57:28.465Z,98042.94
2022-10-15T07:00:30.411Z,98047.22
2022-10-15T07:03:33.107Z,98043.97
2022-10-15T07:06:35.666Z,98044.66
2022-10-15T07:09:37.766Z,98050.22
2022-10-15T07:12:39.683Z,98055.03
2022-10-15T07:15:42.572Z,98056.19
2022-10-15T07:18:45.434Z,98052.88
2022-10-15T07:21:47.390Z,98046.94
2022-10-15T07:24:50.516Z,98048.78
2022-10-15T07:27:52.786Z,98042.66
2022-10-15T07:30:54.914Z,98055.53
2022-10-15T07:33:57.344Z,98058.47
2022-10-15T07:36:59.170Z,98058.31
2022-10-15T07:40:01.479Z,98055.50
2022-10-15T07:43:03.714Z,98056.31
2022-10-15T07:46:07.043Z,98051.72
2022-10-15T07:49:10.308Z,98053.41
2022-10-15T07:52:13.372Z,98049.94
2022-10-15T07:55:15.848Z,98047.31
2022-10-15T07:58:18.078Z,98052.22
2022-10-15T08:01:21.245Z,98060.50
2022-10-15T08:04:23.447Z,98058.16
2022-10-15T08:07:25.701Z,98064.94
2022-10-15T08:10:28.147Z,98056.53
2022-10-15T08:13:30.521Z,98065.06
2022-10-15T08:16:32.799Z,98067.03
2022-10-15T08:19:35.196Z,98064.25
2022-10-15T08:22:37.296Z,98071.84
2022-10-15T08:25:39.950Z,98069.72
2022-10-15T08:28:41.918Z,98060.81
2022-10-15T08:31:44.710Z,98066.88
2022-10-15T08:34:46.886Z,98065.75
2022-10-15T08:37:48.841Z,98070.66
2022-10-15T08:40:53.567Z,98070.75
2022-10-15T08:43:55.847Z,98063.13
2022-10-15T08:47:29.072Z,98065.25
2022-10-15T08:50:40.748Z,98065.88
2022-10-15T08:53:49.720Z,98060.19
2022-10-15T08:56:55.625Z,98065.69
2022-10-15T09:00:38.866Z,98071.75
2022-10-15T09:03:47.169Z,98068.53
2022-10-15T09:06:55.080Z,98062.59
2022-10-15T09:10:23.951Z,98073.25
2022-10-15T09:13:33.915Z,98063.41
2022-10-15T09:16:39.755Z,98069.00
2022-10-15T09:19:44.581Z,98073.16
2022-10-15T09:22:51.521Z,98071.09
2022-10-15T09:26:39.398Z,98066.28
2022-10-15T09:29:41.706Z,98061.81
2022-10-15T09:33:01.198Z,98058.41
2022-10-15T09:36:18.472Z,98056.69
2022-10-15T09:39:33.010Z,98068.75
2022-10-15T09:42:38.841Z,98073.44
2022-10-15T09:45:41.174Z,98075.78
2022-10-15T09:49:22.789Z,98073.94
2022-10-15T09:52:51.893Z,98075.13
2022-10-15T09:56:03.808Z,98076.38
2022-10-15T09:59:09.720Z,98069.50
2022-10-15T10:02:20.300Z,98066.28
2022-10-15T10:05:29.119Z,98070.44
2022-10-15T10:08:38.647Z,98059.94
2022-10-15T10:11:52.459Z,98066.06
2022-10-15T10:14:58.591Z,98058.94
2022-10-15T10:18:01.984Z,98058.94
2022-10-15T10:21:22.211Z,98053.09
2022-10-15T10:24:32.278Z,98043.47
2022-10-15T10:27:34.448Z,98035.91
2022-10-15T10:31:00.404Z,98032.03
2022-10-15T10:34:03.309Z,98032.41
2022-10-15T10:37:07.230Z,98025.63
2022-10-15T10:40:38.823Z,98026.84
2022-10-15T10:43:54.874Z,98021.78
2022-10-15T10:47:07.118Z,98024.03
2022-10-15T10:50:38.188Z,98027.75
2022-10-15T10:53:59.474Z,98022.72
2022-10-15T10:57:01.883Z,98018.34
2022-10-15T11:00:06.499Z,98028.13
2022-10-15T11:03:38.191Z,98020.19
2022-10-15T11:06:55.650Z,98013.72
2022-10-15T11:10:01.990Z,98005.34
2022-10-15T11:13:27.600Z,98003.63
2022-10-15T11:16:41.347Z,98009.56
2022-10-15T11:20:46.254Z,98000.56
2022-10-15T11:24:03.244Z,98005.53
2022-10-15T11:27:20.749Z,97994.53
2022-10-15T11:30:29.993Z,98014.03
2022-10-15T11:34:03.047Z,98010.88
2022-10-15T11:37:34.606Z,98012.97
2022-10-15T11:40:48.770Z,98011.72
2022-10-15T11:44:14.673Z,98026.78
2022-10-15T11:47:29.325Z,98018.84
2022-10-15T11:50:58.025Z,98014.16
2022-10-15T11:54:21.094Z,98029.59
2022-10-15T11:57:25.836Z,98023.41
2022-10-15T12:00:41.420Z,98032.50
2022-10-15T12:03:51.907Z,98028.72
2022-10-15T12:06:56.423Z,98037.31
2022-10-15T12:10:09.948Z,98032.50
2022-10-15T12:13:27.198Z,98041.38
2022-10-15T12:16:46.341Z,98031.91
2022-10-15T12:19:55.290Z,98035.66
2022-10-15T12:23:02.791Z,98038.41
2022-10-15T12:26:32.601Z,98031.53
2022-10-15T12:29:37.490Z,98028.84
2022-10-15T12:32:43.355Z,98021.53
2022-10-15T12:35:55.358Z,98031.75
2022-10-15T12:39:07.790Z,98021.91
2022-10-15T12:42:40.376Z,98020.09
2022-10-15T12:45:51.649Z,98017.28
2022-10-15T12:48:57.487Z,98011.59
2022-10-15T12:52:02.130Z,98016.41
2022-10-15T12:55:25.238Z,98013.00
2022-10-15T12:58:33.789Z,98012.75
2022-10-15T13:01:45.291Z,98016.81
2022-10-15T13:04:48.803Z,98023.06
2022-10-15T13:07:53.299Z,98022.56
2022-10-15T13:10:57.982Z,98015.09
2022-10-15T13:14:03.084Z,98009.16
2022-10-15T13:17:24.043Z,97996.97
2022-10-15T13:20:30.933Z,97996.97
2022-10-15T13:23:33.731Z,98001.75
2022-10-15T13:26:35.786Z,97997.78
2022-10-15T13:29:38.647Z,97992.75
2022-10-15T13:32:47.081Z,97993.00
2022-10-15T13:35:49.365Z,97997.16
2022-10-15T13:38:57.779Z,98000.69
2022-10-15T13:42:17.146Z,97996.72
2022-10-15T13:45:19.097Z,98002.69
2022-10-15T13:48:23.541Z,98008.38
2022-10-15T13:51:33.248Z,98010.41
2022-10-15T13:54:36.666Z,98010.25
2022-10-15T13:57:38.920Z,98011.00
2022-10-15T14:00:42.770Z,98013.16
2022-10-15T14:03:50.738Z,98009.78
2022-10-15T14:07:02.577Z,98016.09
2022-10-15T14:10:06.032Z,98010.97
2022-10-15T14:13:10.703Z,98019.91
2022-10-15T14:16:16.540Z,98018.75
2022-10-15T14:19:21.557Z,98017.13
2022-10-15T14:22:29.267Z,98029.72
2022-10-15T14:25:32.331Z,98031.84
2022-10-15T14:28:35.215Z,98031.94
2022-10-15T14:31:39.822Z,98035.66
2022-10-15T14:34:42.717Z,98033.78
2022-10-15T14:37:44.830Z,98035.56
2022-10-15T14:41:06.371Z,98029.25
2022-10-15T14:44:13.295Z,98033.81
2022-10-15T14:47:22.205Z,98043.84
2022-10-15T14:50:33.863Z,98045.94
2022-10-15T14:53:38.345Z,98040.56
2022-10-15T14:56:42.769Z,98040.91
2022-10-15T14:59:45.225Z,98050.97
2022-10-15T15:02:49.390Z,98051.44
2022-10-15T15:05:57.454Z,98058.06
2022-10-15T15:08:59.591Z,98046.81
2022-10-15T15:12:01.721Z,98052.91
2022-10-15T15:15:19.232Z,98042.69
2022-10-15T15:18:21.402Z,98046.09
2022-10-15T15:21:24.275Z,98044.53
2022-10-15T15:24:26.240Z,98047.00
2022-10-15T15:27:37.303Z,98051.38
2022-10-15T15:30:42.020Z,98050.88
2022-10-15T15:33:44.523Z,98051.84
2022-10-15T15:36:46.677Z,98050.88
2022-10-15T15:39:49.326Z,98059.31
2022-10-15T15:42:51.890Z,98068.22
2022-10-15T15:45:54.480Z,98067.25
2022-10-15T15:48:58.708Z,98074.22
2022-10-15T15:52:00.974Z,98062.66
2022-10-15T15:55:03.020Z,98067.75
2022-10-15T15:58:05.033Z,98081.16
2022-10-15T16:01:06.953Z,98075.88
2022-10-15T16:04:08.936Z,98085.16
2022-10-15T16:07:13.352Z,98091.75
2022-10-15T16:10:15.901Z,98100.97
2022-10-15T16:13:18.112Z,98099.38
2022-10-15T16:16:19.980Z,98100.19
2022-10-15T16:19:22.082Z,98106.16
2022-10-15T16:22:23.965Z,98110.25
2022-10-15T16:25:29.215Z,98115.31
2022-10-15T16:28:32.193Z,98111.34
2022-10-15T16:31:37.138Z,98118.31
2022-10-15T16:34:39.075Z,98121.22
2022-10-15T16:37:41.260Z,98128.22
2022-10-15T16:40:47.442Z,98129.69
2022-10-15T16:43:49.832Z,98134.44
2022-10-15T16:46:51.827Z,98136.84
2022-10-15T16:49:55.469Z,98146.78
2022-10-15T16:52:57.654Z,98145.78
2022-10-15T16:56:01.528Z,98160.34
2022-10-15T16:59:03.683Z,98155.41
2022-10-15T17:02:05.983Z,98161.72
2022-10-15T17:05:08.794Z,98162.66
2022-10-15T17:08:14.436Z,98162.00
2022-10-15T17:11:22.339Z,98153.41
2022-10-15T17:14:27.423Z,98159.75
2022-10-15T17:17:29.707Z,98152.25
2022-10-15T17:20:31.577Z,98153.19
2022-10-15T17:23:33.628Z,98167.34
2022-10-15T17:26:39.135Z,98175.66
2022-10-15T17:29:41.368Z,98178.94
2022-10-15T17:32:43.540Z,98184.22
2022-10-15T17:35:45.552Z,98168.72
2022-10-15T17:38:48.176Z,98164.59
2022-10-15T17:41:51.973Z,98168.38
2022-10-15T17:44:54.204Z,98174.97
2022-10-15T17:47:56.241Z,98182.88
2022-10-15T17:51:02.720Z,98182.53
2022-10-15T17:54:05.107Z,98183.75
2022-10-15T17:57:07.787Z,98192.16
2022-10-15T18:00:11.577Z,98188.19
2022-10-15T18:03:16.492Z,98189.66
2022-10-15T18:06:21.870Z,98199.47
2022-10-15T18:09:27.621Z,98203.06
2022-10-15T18:12:32.664Z,98195.34
2022-10-15T18:15:37.991Z,98204.38
2022-10-15T18:18:41.120Z,98192.19
2022-10-15T18:21:47.005Z,98198.78
2022-10-15T18:24:51.917Z,98202.94
2022-10-15T18:27:54.046Z,98213.31
2022-10-15T18:30:56.040Z,98216.16
2022-10-15T18:33:58.090Z,98221.72
2022-10-15T18:37:00.776Z,98220.25
2022-10-15T18:40:02.977Z,98224.53
2022-10-15T18:43:05.826Z,98218.44
2022-10-15T18:46:11.566Z,98223.88
2022-10-15T18:49:16.247Z,98236.41
2022-10-15T18:52:28.128Z,98228.00
2022-10-15T18:55:40.552Z,98226.50
2022-10-15T18:58:45.717Z,98230.97
2022-10-15T19:01:49.587Z,98233.59
2022-10-15T19:04:51.963Z,98230.50
2022-10-15T19:07:55.755Z,98235.94
2022-10-15T19:11:07.205Z,98240.25
2022-10-15T19:14:09.695Z,98241.06
2022-10-15T19:17:13.000Z,98240.69
2022-10-15T19:20:15.505Z,98244.38
2022-10-15T19:23:17.706Z,98249.28
2022-10-15T19:26:19.933Z,98249.94
2022-10-15T19:29:22.073Z,98251.59
2022-10-15T19:32:27.208Z,98255.22
2022-10-15T19:35:29.469Z,98260.53
2022-10-15T19:38:32.409Z,98254.09
2022-10-15T19:41:39.613Z,98258.56
2022-10-15T19:44:41.952Z,98257.56
2022-10-15T19:47:44.311Z,98260.53
2022-10-15T19:50:47.435Z,98263.19
2022-10-15T19:53:54.550Z,98267.94
2022-10-15T19:56:57.019Z,98263.19
2022-10-15T19:59:59.694Z,98263.88
2022-10-15T20:03:02.196Z,98267.88
2022-10-15T20:06:08.308Z,98267.50
2022-10-15T20:09:10.687Z,98274.13
2022-10-15T20:12:12.721Z,98276.78
2022-10-15T20:15:16.182Z,98287.34
2022-10-15T20:18:19.248Z,98279.91
2022-10-15T20:21:21.476Z,98281.72
2022-10-15T20:24:23.809Z,98285.00
2022-10-15T20:27:27.913Z,98283.03
2022-10-15T20:30:33.004Z,98288.31
2022-10-15T20:33:38.597Z,98283.53
2022-10-15T20:36:42.598Z,98286.00
2022-10-15T20:39:45.198Z,98282.38
2022-10-15T20:42:54.255Z,98290.94
2022-10-15T20:46:00.420Z,98291.94
2022-10-15T20:49:09.509Z,98294.59
2022-10-15T20:52:11.949Z,98303.50
2022-10-15T20:55:14.139Z,98300.69
2022-10-15T21:01:23.559Z,98305.16
2022-10-15T21:04:25.660Z,98306.78
2022-10-15T21:07:31.321Z,98306.44
2022-10-15T21:10:35.488Z,98309.13
2022-10-15T21:13:37.540Z,98311.75
2022-10-15T21:16:40.761Z,98317.84
2022-10-15T21:19:42.842Z,98324.47
2022-10-15T21:22:44.921Z,98321.97
2022-10-15T21:25:46.980Z,98324.28
2022-10-15T21:28:49.152Z,98326.91
2022-10-15T21:31:52.744Z,98325.78
2022-10-15T21:34:54.527Z,98317.34
2022-10-15T21:37:59.811Z,98332.22
2022-10-15T21:41:01.738Z,98324.78
2022-10-15T21:44:07.606Z,98330.56
2022-10-15T21:47:12.876Z,98330.41
2022-10-15T21:50:17.210Z,98334.84
2022-10-15T21:53:19.083Z,98336.81
2022-10-15T21:56:21.650Z,98340.13
2022-10-15T21:59:23.717Z,98328.91
2022-10-15T22:02:25.828Z,98334.69
2022-10-15T22:05:27.754Z,98336.31
2022-10-15T22:08:29.953Z,98342.44
2022-10-15T22:11:34.440Z,98343.06
2022-10-15T22:14:36.394Z,98343.22
2022-10-15T22:17:40.845Z,98348.84
2022-10-15T22:20:42.612Z,98341.09
2022-10-15T22:23:46.905Z,98349.03
2022-10-15T22:26:51.282Z,98351.16
2022-10-15T22:29:53.419Z,98347.72
2022-10-15T22:32:55.123Z,98346.88
2022-10-15T22:36:03.737Z,98340.59
2022-10-15T22:39:06.763Z,98340.13
2022-10-15T22:42:08.804Z,98341.25
2022-10-15T22:45:10.690Z,98339.09
2022-10-15T22:48:12.879Z,98334.81
2022-10-15T22:51:16.036Z,98344.38
2022-10-15T22:54:19.712Z,98349.31
2022-10-15T22:57:21.384Z,98348.69
2022-10-15T23:00:23.741Z,98344.06
2022-10-15T23:03:25.404Z,98351.16
2022-10-15T23:06:28.557Z,98348.69
2022-10-15T23:09:30.269Z,98356.09
2022-10-15T23:12:32.076Z,98356.59
2022-10-15T23:15:34.166Z,98359.56
2022-10-15T23:18:35.986Z,98362.88
2022-10-15T23:21:45.114Z,98357.94
2022-10-15T23:24:47.021Z,98361.56
2022-10-15T23:27:49.288Z,98362.38
2022-10-15T23:30:51.237Z,98356.28
2022-10-15T23:33:54.912Z,98357.94
2022-10-15T23:36:57.001Z,98358.91
2022-10-15T23:39:59.006Z,98370.78
2022-10-15T23:43:01.555Z,98373.94
2022-10-15T23:46:04.149Z,98363.72
2022-10-15T23:49:06.914Z,98369.50
2022-10-15T23:52:09.001Z,98375.09
2022-10-15T23:55:10.843Z,98376.41
2022-10-15T23:58:13.027Z,98377.88
